Time;durP1;ratioP1;P1;durP2;ratioP2;P2;SDS_P1;SDS_P2;PMS_P1;PMS_P2;Temp;Humidity;BMP_temperature;BMP_pressure;BME280_temperature;BME280_humidity;BME280_pressure;Samples;Min_cycle;Max_cycle;Signal;HPM_P1;HPM_P2
2024/04/14 00:00:33;;;;;;;10.38;6.15;;;16.80;78.50;;;;;;5342432;26;20374;-91
2024/04/14 00:02:59;;;;;;;10.30;9.13;;;16.70;78.80;;;;;;5349896;26;20051;-91
2024/04/14 00:05:27;;;;;;;10.75;7.88;;;16.70;78.80;;;;;;5348990;26;20005;-91
2024/04/14 00:07:52;;;;;;;9.80;7.20;;;16.50;79.90;;;;;;5350019;26;20001;-91
2024/04/14 00:10:18;;;;;;;10.80;7.63;;;16.40;80.00;;;;;;5349531;26;20001;-90
2024/04/14 00:12:44;;;;;;;9.77;7.10;;;16.20;81.40;;;;;;5349126;26;20012;-91
2024/04/14 00:15:09;;;;;;;8.88;8.07;;;16.10;82.30;;;;;;5336238;26;20002;-90
2024/04/14 00:17:36;;;;;;;8.63;7.82;;;16.10;82.30;;;;;;5342318;26;20001;-90
2024/04/14 00:20:03;;;;;;;9.15;6.43;;;16.10;82.80;;;;;;5349884;26;20001;-91
2024/04/14 00:22:29;;;;;;;9.13;8.00;;;16.20;82.20;;;;;;5348491;26;20012;-90
2024/04/14 00:24:55;;;;;;;8.95;6.88;;;16.00;82.70;;;;;;5349023;26;20478;-91
2024/04/14 00:27:21;;;;;;;14.18;9.25;;;16.00;82.70;;;;;;5349530;26;20011;-91
2024/04/14 00:29:47;;;;;;;9.07;7.05;;;16.10;81.90;;;;;;5345308;26;20009;-90
2024/04/14 00:32:14;;;;;;;8.18;6.97;;;16.10;81.50;;;;;;5319680;26;20014;-90
2024/04/14 00:34:40;;;;;;;;;;;16.20;81.40;;;;;;5350895;26;20012;-90
2024/04/14 00:37:06;;;;;;;10.32;7.28;;;16.20;81.10;;;;;;5349052;26;20376;-89
2024/04/14 00:39:31;;;;;;;12.48;8.50;;;16.10;81.90;;;;;;5349477;26;20008;-89
2024/04/14 00:41:58;;;;;;;9.35;7.55;;;16.00;82.10;;;;;;5349989;26;20008;-90
2024/04/14 00:44:24;;;;;;;11.30;8.07;;;16.00;81.90;;;;;;5318758;26;20012;-91
2024/04/14 00:46:51;;;;;;;8.95;8.05;;;16.00;81.40;;;;;;5346584;26;20001;-90
2024/04/14 00:49:19;;;;;;;10.00;7.57;;;16.10;81.20;;;;;;5349397;26;20015;-91
2024/04/14 00:51:45;;;;;;;9.82;8.55;;;16.10;81.20;;;;;;5349630;26;20028;-91
2024/04/14 00:54:12;;;;;;;9.18;7.82;;;16.10;81.10;;;;;;5349233;26;19997;-90
2024/04/14 00:56:38;;;;;;;9.27;7.32;;;16.00;81.70;;;;;;5349998;26;20021;-90
2024/04/14 00:59:04;;;;;;;9.05;7.82;;;15.90;81.20;;;;;;5348889;26;20070;-92
2024/04/14 01:01:31;;;;;;;8.13;7.13;;;15.80;81.40;;;;;;5349697;26;20075;-90
2024/04/14 01:03:57;;;;;;;9.85;7.53;;;15.80;81.20;;;;;;5349669;26;20012;-90
2024/04/14 01:06:23;;;;;;;10.18;8.43;;;15.80;81.20;;;;;;5350164;26;20001;-90
2024/04/14 01:08:49;;;;;;;8.25;7.50;;;15.80;81.30;;;;;;5319920;26;20008;-90
2024/04/14 01:11:15;;;;;;;10.13;8.05;;;15.80;80.70;;;;;;5349912;26;20001;-91
2024/04/14 01:13:45;;;;;;;9.68;7.47;;;15.80;80.70;;;;;;5348379;26;20549;-90
2024/04/14 01:16:10;;;;;;;8.65;7.32;;;15.80;80.30;;;;;;5349203;26;20007;-90
2024/04/14 01:18:36;;;;;;;9.15;7.20;;;15.70;80.70;;;;;;5318898;26;20000;-90
2024/04/14 01:21:02;;;;;;;9.60;7.75;;;15.70;80.80;;;;;;5347190;26;20256;-90
2024/04/14 01:23:28;;;;;;;8.43;7.03;;;15.60;80.80;;;;;;5319365;26;20005;-89
2024/04/14 01:25:55;;;;;;;9.35;7.95;;;15.60;81.10;;;;;;5349935;26;20004;-90
2024/04/14 01:28:21;;;;;;;8.32;7.53;;;15.50;81.50;;;;;;5347821;26;20005;-90
2024/04/14 01:30:47;;;;;;;8.20;7.40;;;15.50;81.80;;;;;;5316943;26;20007;-91
2024/04/14 01:33:13;;;;;;;8.00;6.78;;;15.40;81.90;;;;;;5347599;26;20009;-90
2024/04/14 01:35:38;;;;;;;8.80;7.40;;;15.30;82.10;;;;;;5314982;26;20001;-90
2024/04/14 01:38:04;;;;;;;9.93;8.75;;;15.40;82.20;;;;;;5349370;26;20002;-91
2024/04/14 01:40:30;;;;;;;11.93;8.13;;;15.30;82.60;;;;;;5344901;26;20048;-92
2024/04/14 01:42:55;;;;;;;9.35;7.43;;;15.20;82.90;;;;;;5360209;26;19997;-90
2024/04/14 01:45:21;;;;;;;8.65;7.43;;;15.20;82.70;;;;;;5315106;26;20009;-90
2024/04/14 01:47:47;;;;;;;9.93;7.72;;;15.10;83.20;;;;;;5344859;26;20066;-90
2024/04/14 01:50:12;;;;;;;10.73;8.00;;;15.10;83.20;;;;;;5348091;26;20009;-90
2024/04/14 01:52:38;;;;;;;7.88;6.90;;;15.10;83.00;;;;;;5347605;26;20001;-89
2024/04/14 01:55:04;;;;;;;12.15;8.63;;;15.10;82.80;;;;;;5347885;26;20013;-90
2024/04/14 01:57:32;;;;;;;9.55;7.00;;;15.00;82.60;;;;;;5347045;26;19997;-89
2024/04/14 01:59:57;;;;;;;10.25;8.00;;;15.00;82.40;;;;;;5348180;26;20075;-90
2024/04/14 02:02:23;;;;;;;7.90;7.20;;;15.00;82.50;;;;;;5347627;26;20339;-89
2024/04/14 02:04:48;;;;;;;7.88;7.07;;;15.00;82.20;;;;;;5318135;26;20001;-90
2024/04/14 02:07:14;;;;;;;9.50;7.47;;;14.90;82.40;;;;;;5347599;26;19997;-90
2024/04/14 02:09:40;;;;;;;9.85;7.68;;;14.90;82.50;;;;;;5342384;26;20001;-90
2024/04/14 02:12:05;;;;;;;9.45;7.53;;;14.90;82.50;;;;;;5346843;26;20524;-89
2024/04/14 02:14:31;;;;;;;8.23;6.78;;;14.90;82.20;;;;;;5348543;26;20001;-90
2024/04/14 02:16:57;;;;;;;7.53;6.35;;;14.90;82.30;;;;;;5350277;26;20005;-90
2024/04/14 02:19:22;;;;;;;7.55;6.85;;;14.80;82.10;;;;;;5352714;26;20052;-91
2024/04/14 02:21:48;;;;;;;8.52;6.63;;;14.80;82.00;;;;;;5353771;26;20001;-90
2024/04/14 02:24:14;;;;;;;7.88;7.05;;;14.80;81.90;;;;;;5352417;26;19997;-89
2024/04/14 02:26:39;;;;;;;9.65;7.57;;;14.80;82.10;;;;;;5347504;26;20011;-89
2024/04/14 02:29:07;;;;;;;7.80;7.10;;;14.80;81.80;;;;;;5351076;26;20078;-90
2024/04/14 02:31:32;;;;;;;9.40;8.57;;;14.80;81.90;;;;;;5351135;26;20070;-90
2024/04/14 02:33:58;;;;;;;9.55;8.75;;;14.80;81.60;;;;;;5350651;26;20009;-90
2024/04/14 02:36:27;;;;;;;9.98;7.53;;;14.80;81.70;;;;;;5350676;26;20012;-89
2024/04/14 02:38:53;;;;;;;7.40;6.70;;;14.80;81.60;;;;;;5350278;26;19997;-90
2024/04/14 02:41:18;;;;;;;7.80;7.10;;;14.80;81.50;;;;;;5348072;26;20012;-89
2024/04/14 02:43:45;;;;;;;8.20;6.13;;;14.70;81.60;;;;;;5319930;26;20025;-90
2024/04/14 02:46:11;;;;;;;7.95;5.93;;;14.80;81.50;;;;;;5350662;26;20002;-90
2024/04/14 02:48:37;;;;;;;9.68;6.88;;;14.80;81.50;;;;;;5351601;26;20008;-90
2024/04/14 02:51:03;;;;;;;8.40;7.43;;;14.70;81.60;;;;;;5320602;26;20016;-92
2024/04/14 02:53:30;;;;;;;7.03;6.38;;;14.80;81.70;;;;;;5350744;26;19997;-89
2024/04/14 02:55:56;;;;;;;8.57;6.95;;;14.70;81.90;;;;;;5319649;26;20008;-89
2024/04/14 02:58:21;;;;;;;9.27;7.32;;;14.80;81.80;;;;;;5349923;26;20005;-90
2024/04/14 03:00:47;;;;;;;6.85;6.13;;;14.80;81.60;;;;;;5350087;26;20078;-91
2024/04/14 03:03:13;;;;;;;7.95;7.15;;;14.80;81.10;;;;;;5350603;26;20009;-89
2024/04/14 03:05:39;;;;;;;7.70;5.65;;;14.80;81.00;;;;;;5314339;26;20418;-91
2024/04/14 03:08:05;;;;;;;6.75;5.07;;;14.80;81.30;;;;;;5320850;26;20405;-90
2024/04/14 03:10:32;;;;;;;8.35;7.15;;;14.80;81.10;;;;;;5319635;26;20001;-90
2024/04/14 03:12:58;;;;;;;6.68;6.03;;;14.80;81.40;;;;;;5347643;26;20079;-89
2024/04/14 03:15:24;;;;;;;8.48;6.90;;;14.80;81.20;;;;;;5350625;26;20009;-90
2024/04/14 03:17:49;;;;;;;9.45;6.38;;;14.90;81.00;;;;;;5344370;26;20051;-90
2024/04/14 03:20:15;;;;;;;6.78;6.07;;;14.90;80.60;;;;;;5350415;26;19997;-90
2024/04/14 03:22:41;;;;;;;5.72;4.72;;;14.90;80.50;;;;;;5312735;26;20008;-89
2024/04/14 03:25:06;;;;;;;7.43;6.80;;;14.90;80.40;;;;;;5349517;26;20060;-91
2024/04/14 03:27:32;;;;;;;6.82;6.13;;;14.90;80.20;;;;;;5313786;26;20004;-90
2024/04/14 03:29:58;;;;;;;7.40;6.70;;;14.90;80.00;;;;;;5348371;26;19997;-90
2024/04/14 03:32:23;;;;;;;6.78;6.00;;;14.80;80.30;;;;;;5335103;26;20000;-89
2024/04/14 03:34:52;;;;;;;6.97;6.15;;;14.80;80.30;;;;;;5351016;26;20467;-90
2024/04/14 03:37:18;;;;;;;7.72;4.95;;;14.80;80.40;;;;;;5350093;26;20013;-90
2024/04/14 03:39:43;;;;;;;5.28;4.38;;;14.70;80.70;;;;;;5349857;26;20348;-90
2024/04/14 03:42:11;;;;;;;8.43;5.88;;;14.80;80.70;;;;;;5317744;26;20013;-90
2024/04/14 03:44:36;;;;;;;7.90;6.78;;;14.70;80.80;;;;;;5345317;26;20060;-90
2024/04/14 03:47:04;;;;;;;6.80;6.10;;;14.70;80.80;;;;;;5349522;26;20008;-90
2024/04/14 03:49:30;;;;;;;5.68;4.82;;;14.80;80.70;;;;;;5313672;26;20001;-90
2024/04/14 03:51:56;;;;;;;8.00;7.28;;;14.70;80.90;;;;;;5349313;26;20000;-90
2024/04/14 03:54:22;;;;;;;7.88;6.68;;;14.70;81.20;;;;;;5348892;26;20001;-91
2024/04/14 03:56:47;;;;;;;8.52;6.75;;;14.70;81.20;;;;;;5320022;26;20410;-92
2024/04/14 03:59:13;;;;;;;7.15;5.93;;;14.70;81.30;;;;;;5351665;26;20009;-90
2024/04/14 04:01:38;;;;;;;8.10;6.22;;;14.70;81.30;;;;;;5368440;26;20047;-88
2024/04/14 04:04:04;;;;;;;8.57;7.10;;;14.70;81.10;;;;;;5365266;26;20040;-89
2024/04/14 04:06:30;;;;;;;6.68;6.07;;;14.80;81.30;;;;;;5322335;26;20001;-89
2024/04/14 04:08:56;;;;;;;8.07;6.43;;;14.70;81.40;;;;;;5351041;26;20004;-89
2024/04/14 04:11:21;;;;;;;6.40;5.40;;;14.70;81.80;;;;;;5349196;26;20005;-90
2024/04/14 04:13:47;;;;;;;7.63;6.85;;;14.60;82.20;;;;;;5313717;26;20004;-90
2024/04/14 04:16:13;;;;;;;5.55;4.60;;;14.60;82.50;;;;;;5347682;26;20332;-89
2024/04/14 04:18:39;;;;;;;5.25;4.25;;;14.60;82.70;;;;;;5348267;26;20347;-90
2024/04/14 04:21:05;;;;;;;9.95;6.53;;;14.60;82.90;;;;;;5334523;26;20001;-89
2024/04/14 04:23:31;;;;;;;12.45;4.90;;;14.60;82.90;;;;;;5347849;26;20421;-89
2024/04/14 04:25:59;;;;;;;6.78;5.72;;;14.60;82.70;;;;;;5346268;26;20012;-88
2024/04/14 04:28:27;;;;;;;8.75;6.38;;;14.60;83.80;;;;;;5318858;26;19997;-89
2024/04/14 04:30:53;;;;;;;6.78;6.18;;;14.60;83.10;;;;;;5348558;26;20019;-89
2024/04/14 04:33:20;;;;;;;7.90;7.18;;;14.60;83.40;;;;;;5348636;26;19993;-90
2024/04/14 04:35:56;;;;;;;7.18;6.47;;;14.60;82.80;;;;;;5348586;26;20523;-88
2024/04/14 04:38:25;;;;;;;7.00;6.32;;;14.60;82.40;;;;;;5349274;26;20016;-89
2024/04/14 04:40:52;;;;;;;6.75;5.90;;;14.70;82.60;;;;;;5348848;26;20012;-90
2024/04/14 04:43:19;;;;;;;5.03;3.97;;;14.70;82.10;;;;;;5348834;26;20375;-88
2024/04/14 04:45:44;;;;;;;7.78;6.03;;;14.70;82.50;;;;;;5348571;26;20001;-89
2024/04/14 04:48:10;;;;;;;5.97;5.32;;;14.60;82.60;;;;;;5349335;26;20020;-90
2024/04/14 04:50:36;;;;;;;7.43;6.72;;;14.50;84.50;;;;;;5346906;26;20016;-89
2024/04/14 04:53:02;;;;;;;6.55;5.43;;;14.50;84.40;;;;;;5346885;26;20008;-90
2024/04/14 04:55:28;;;;;;;6.22;5.03;;;14.50;84.40;;;;;;5317855;26;20004;-90
2024/04/14 04:57:54;;;;;;;6.95;6.25;;;14.50;84.50;;;;;;5348313;26;20012;-89
2024/04/14 05:00:19;;;;;;;11.65;5.65;;;14.50;84.00;;;;;;5348370;26;20020;-88
2024/04/14 05:02:45;;;;;;;9.43;6.22;;;14.40;85.50;;;;;;5347362;26;20005;-89
2024/04/14 05:05:11;;;;;;;7.65;5.82;;;14.30;86.10;;;;;;5349544;26;20552;-89
2024/04/14 05:07:36;;;;;;;11.10;6.53;;;14.30;86.80;;;;;;5344826;26;20016;-89
2024/04/14 05:10:05;;;;;;;7.22;6.55;;;14.20;88.20;;;;;;5344882;26;20143;-89
2024/04/14 05:12:31;;;;;;;8.45;7.13;;;14.10;88.70;;;;;;5347205;26;20016;-89
2024/04/14 05:14:57;;;;;;;14.48;6.57;;;14.00;88.50;;;;;;5348576;26;20005;-89
2024/04/14 05:17:24;;;;;;;7.32;6.28;;;14.00;89.10;;;;;;5348147;26;20008;-91
2024/04/14 05:19:49;;;;;;;7.85;6.10;;;14.10;88.90;;;;;;5342695;26;20526;-89
2024/04/14 05:22:15;;;;;;;10.50;6.28;;;14.00;89.30;;;;;;5347607;26;19997;-89
2024/04/14 05:24:41;;;;;;;7.25;6.47;;;14.00;89.80;;;;;;5347888;26;20015;-90
2024/04/14 05:27:09;;;;;;;10.00;6.80;;;14.00;89.20;;;;;;5347930;26;20004;-90
2024/04/14 05:29:35;;;;;;;7.95;6.70;;;14.00;89.50;;;;;;5347238;26;20050;-90
2024/04/14 05:32:01;;;;;;;7.07;6.22;;;14.10;89.80;;;;;;5347934;26;20005;-91
2024/04/14 05:34:27;;;;;;;8.80;6.13;;;14.30;88.60;;;;;;5316108;26;20024;-89
2024/04/14 05:36:53;;;;;;;10.25;7.32;;;14.40;89.10;;;;;;5347400;26;20005;-89
2024/04/14 05:39:18;;;;;;;8.73;6.13;;;14.50;86.70;;;;;;5347198;26;20008;-89
2024/04/14 05:41:44;;;;;;;11.60;8.43;;;14.50;86.70;;;;;;5346855;26;20021;-87
2024/04/14 05:44:10;;;;;;;7.35;6.63;;;14.60;85.70;;;;;;5346672;26;20075;-88
2024/04/14 05:46:35;;;;;;;6.72;6.07;;;14.70;84.80;;;;;;5347273;26;19997;-90
2024/04/14 05:49:03;;;;;;;8.63;7.18;;;14.70;83.80;;;;;;5309847;26;20484;-90
2024/04/14 05:51:28;;;;;;;9.90;7.50;;;14.70;84.00;;;;;;5341627;26;20012;-89
2024/04/14 05:53:54;;;;;;;6.75;6.10;;;14.80;84.00;;;;;;5347100;26;19997;-88
2024/04/14 05:56:19;;;;;;;7.65;6.05;;;14.60;84.70;;;;;;5346284;26;20012;-89
2024/04/14 05:58:45;;;;;;;6.15;5.50;;;14.70;84.80;;;;;;5347520;26;20008;-89
2024/04/14 06:01:12;;;;;;;8.70;6.60;;;14.60;85.60;;;;;;5316574;26;20001;-91
2024/04/14 06:03:37;;;;;;;7.68;6.78;;;14.70;85.00;;;;;;5346243;26;20479;-91
2024/04/14 06:06:03;;;;;;;6.80;5.95;;;14.70;85.10;;;;;;5344796;26;20048;-90
2024/04/14 06:08:29;;;;;;;7.43;6.53;;;14.70;84.90;;;;;;5347704;26;20026;-89
2024/04/14 06:10:55;;;;;;;7.65;6.90;;;14.80;84.70;;;;;;5347407;26;19997;-88
2024/04/14 06:13:23;;;;;;;7.57;6.63;;;14.80;85.30;;;;;;5347436;26;20003;-90
2024/04/14 06:15:49;;;;;;;6.95;6.15;;;14.90;85.20;;;;;;5348509;26;20004;-88
2024/04/14 06:18:15;;;;;;;7.68;6.18;;;14.90;84.30;;;;;;5346440;26;20011;-88
2024/04/14 06:20:41;;;;;;;7.72;6.95;;;15.00;84.60;;;;;;5314162;26;20078;-87
2024/04/14 06:23:07;;;;;;;7.32;5.90;;;15.10;84.70;;;;;;5355214;26;19993;-89
2024/04/14 06:25:33;;;;;;;6.78;6.05;;;15.10;83.30;;;;;;5365884;26;19989;-87
2024/04/14 06:27:58;;;;;;;6.78;5.82;;;15.20;84.50;;;;;;5355283;26;20007;-89
2024/04/14 06:30:24;;;;;;;9.27;5.78;;;15.30;83.90;;;;;;5347076;26;20001;-89
2024/04/14 06:32:50;;;;;;;7.00;6.35;;;15.30;83.10;;;;;;5344966;26;20473;-88
2024/04/14 06:35:16;;;;;;;7.40;6.53;;;15.40;83.70;;;;;;5345243;26;20078;-90
2024/04/14 06:37:42;;;;;;;8.27;7.03;;;15.50;83.60;;;;;;5350382;26;20021;-89
2024/04/14 06:40:09;;;;;;;6.07;5.03;;;15.50;82.60;;;;;;5345716;26;20415;-89
2024/04/14 06:42:35;;;;;;;8.32;7.53;;;15.60;83.60;;;;;;5311218;26;20016;-90
2024/04/14 06:45:01;;;;;;;9.27;7.20;;;15.70;83.90;;;;;;5342644;26;20001;-89
2024/04/14 06:47:26;;;;;;;6.03;4.60;;;15.80;82.80;;;;;;5342018;26;20340;-89
2024/04/14 06:49:52;;;;;;;9.10;7.13;;;15.80;82.00;;;;;;5342614;26;20074;-89
2024/04/14 06:52:18;;;;;;;7.75;6.97;;;15.90;82.30;;;;;;5340039;26;20020;-90
2024/04/14 06:54:43;;;;;;;8.38;6.40;;;15.90;81.40;;;;;;5326967;26;20065;-90
2024/04/14 06:57:09;;;;;;;6.97;6.28;;;15.90;82.30;;;;;;5342595;26;20090;-90
2024/04/14 06:59:35;;;;;;;5.72;5.13;;;16.00;82.80;;;;;;5342304;26;20020;-91
2024/04/14 07:02:01;;;;;;;8.25;5.93;;;16.10;83.70;;;;;;5340380;26;20426;-90
2024/04/14 07:04:27;;;;;;;9.18;6.15;;;16.20;81.00;;;;;;5340221;26;20557;-85
2024/04/14 07:06:52;;;;;;;8.25;6.07;;;16.30;81.00;;;;;;5344951;26;20144;-90
2024/04/14 07:09:18;;;;;;;9.77;6.50;;;16.30;80.70;;;;;;5347676;26;20011;-90
2024/04/14 07:11:44;;;;;;;6.38;5.75;;;16.30;80.40;;;;;;5345670;26;20038;-90
2024/04/14 07:14:10;;;;;;;6.97;5.40;;;16.40;81.40;;;;;;5345133;26;20410;-89
2024/04/14 07:16:36;;;;;;;7.72;5.93;;;16.50;80.80;;;;;;5349830;26;20001;-90
2024/04/14 07:19:02;;;;;;;7.75;6.28;;;16.70;80.80;;;;;;5346606;26;20090;-89
2024/04/14 07:21:30;;;;;;;6.63;5.93;;;16.80;80.70;;;;;;5346406;26;20016;-90
2024/04/14 07:23:56;;;;;;;7.47;5.90;;;16.90;81.30;;;;;;5350213;26;20009;-91
2024/04/14 07:26:24;;;;;;;7.30;5.47;;;17.10;80.40;;;;;;5350238;26;20396;-90
2024/04/14 07:28:50;;;;;;;6.88;4.88;;;17.20;80.50;;;;;;5349642;26;20107;-90
2024/04/14 07:31:18;;;;;;;7.88;6.18;;;17.30;80.10;;;;;;5348818;26;20009;-91
2024/04/14 07:33:44;;;;;;;5.00;4.50;;;17.50;80.80;;;;;;5348031;26;20009;-90
2024/04/14 07:36:10;;;;;;;7.93;5.70;;;17.60;79.20;;;;;;5352592;26;20012;-90
2024/04/14 07:38:35;;;;;;;8.43;6.30;;;17.70;79.30;;;;;;5314446;27;20067;-91
2024/04/14 07:41:01;;;;;;;8.48;5.43;;;17.80;79.00;;;;;;5348660;26;20471;-90
2024/04/14 07:43:27;;;;;;;7.03;6.15;;;18.00;77.50;;;;;;5349055;26;19997;-91
2024/04/14 07:45:53;;;;;;;7.00;5.18;;;18.10;77.90;;;;;;5348172;26;20021;-91
2024/04/14 07:48:18;;;;;;;4.63;3.92;;;18.20;78.10;;;;;;5315852;26;20364;-90
2024/04/14 07:50:44;;;;;;;6.57;5.90;;;18.30;77.00;;;;;;5317860;26;20005;-91
2024/04/14 07:53:10;;;;;;;6.30;5.80;;;18.40;77.00;;;;;;5310265;26;20001;-90
2024/04/14 07:55:36;;;;;;;5.57;4.90;;;18.50;77.50;;;;;;5344211;26;20016;-89
2024/04/14 07:58:01;;;;;;;9.52;5.28;;;18.50;75.90;;;;;;5348166;26;20005;-90
2024/04/14 08:00:27;;;;;;;8.38;5.53;;;18.50;77.30;;;;;;5345924;26;20001;-90
2024/04/14 08:02:53;;;;;;;6.85;6.25;;;18.50;77.10;;;;;;5349506;26;20000;-90
2024/04/14 08:05:18;;;;;;;7.43;5.13;;;18.70;77.30;;;;;;5348069;26;20013;-89
2024/04/14 08:07:44;;;;;;;8.45;5.28;;;18.70;75.00;;;;;;5348905;26;20044;-91
2024/04/14 08:10:10;;;;;;;5.68;4.95;;;18.80;76.80;;;;;;5339314;26;19997;-92
2024/04/14 08:12:36;;;;;;;8.35;5.03;;;18.90;75.30;;;;;;5342566;26;20017;-91
2024/04/14 08:15:02;;;;;;;6.07;4.95;;;19.00;73.50;;;;;;5348010;26;20061;-91
2024/04/14 08:17:31;;;;;;;7.10;3.83;;;19.10;74.70;;;;;;5349108;26;20622;-90
2024/04/14 08:19:57;;;;;;;9.10;4.85;;;19.30;74.20;;;;;;5353380;26;20051;-89
2024/04/14 08:22:22;;;;;;;6.85;5.32;;;19.40;73.60;;;;;;5347679;26;19997;-89
2024/04/14 08:24:48;;;;;;;7.45;5.30;;;19.50;73.70;;;;;;5347900;26;20138;-90
2024/04/14 08:27:14;;;;;;;7.35;6.65;;;19.50;72.20;;;;;;5336357;26;20051;-90
2024/04/14 08:29:39;;;;;;;7.38;4.75;;;19.60;72.10;;;;;;5347820;26;20015;-87
2024/04/14 08:32:06;;;;;;;7.57;5.10;;;19.70;72.70;;;;;;5349645;26;20012;-89
2024/04/14 08:34:31;;;;;;;6.70;5.28;;;19.80;70.90;;;;;;5344201;26;19998;-88
2024/04/14 08:36:57;;;;;;;7.32;3.83;;;20.00;70.30;;;;;;5346224;26;20358;-90
2024/04/14 08:39:23;;;;;;;6.13;4.78;;;20.10;70.10;;;;;;5348679;26;20078;-90
2024/04/14 08:41:48;;;;;;;5.50;4.57;;;20.30;69.60;;;;;;5346004;26;19997;-88
2024/04/14 08:44:15;;;;;;;7.30;5.07;;;20.30;67.00;;;;;;5346887;26;20005;-90
2024/04/14 08:46:42;;;;;;;5.95;4.45;;;20.30;68.20;;;;;;5351947;26;20047;-90
2024/04/14 08:49:10;;;;;;;8.80;4.50;;;20.10;68.00;;;;;;5367432;26;20020;-90
2024/04/14 08:51:36;;;;;;;6.85;5.35;;;20.10;68.90;;;;;;5330913;26;20009;-89
2024/04/14 08:54:01;;;;;;;7.55;5.22;;;20.30;69.40;;;;;;5349176;26;20074;-90
2024/04/14 08:56:30;;;;;;;6.15;5.13;;;20.30;69.50;;;;;;5343524;26;20001;-88
2024/04/14 08:59:01;;;;;;;9.23;4.72;;;20.40;69.50;;;;;;5347768;26;20443;-88
2024/04/14 09:01:27;;;;;;;5.80;4.93;;;20.60;67.70;;;;;;5318260;26;20001;-89
2024/04/14 09:03:53;;;;;;;8.60;4.75;;;20.80;67.90;;;;;;5348634;26;19997;-88
2024/04/14 09:06:20;;;;;;;6.65;4.75;;;21.00;66.60;;;;;;5348452;26;20008;-89
2024/04/14 09:08:45;;;;;;;8.05;5.82;;;21.10;67.00;;;;;;5347692;26;20007;-88
2024/04/14 09:11:11;;;;;;;6.10;4.43;;;21.10;65.30;;;;;;5333522;26;20009;-89
2024/04/14 09:13:37;;;;;;;4.80;3.22;;;20.90;65.90;;;;;;5347743;26;20446;-88
2024/04/14 09:16:03;;;;;;;5.22;4.25;;;21.00;66.30;;;;;;5348363;26;20015;-89
2024/04/14 09:18:29;;;;;;;6.32;4.88;;;21.20;65.50;;;;;;5348789;26;20005;-90
2024/04/14 09:20:56;;;;;;;7.65;5.40;;;21.40;66.10;;;;;;5352369;26;20023;-89
2024/04/14 09:23:22;;;;;;;8.25;4.63;;;21.30;64.10;;;;;;5331466;26;20480;-89
2024/04/14 09:25:50;;;;;;;5.40;4.22;;;21.20;66.30;;;;;;5345446;26;20005;-89
2024/04/14 09:28:16;;;;;;;7.72;4.40;;;21.10;65.80;;;;;;5349083;26;20000;-89
2024/04/14 09:30:42;;;;;;;9.45;3.88;;;21.20;66.10;;;;;;5319088;26;20000;-91
2024/04/14 09:33:11;;;;;;;6.78;4.35;;;21.60;65.00;;;;;;5347999;26;20001;-88
2024/04/14 09:35:37;;;;;;;7.32;5.43;;;21.80;63.00;;;;;;5349127;26;20001;-88
2024/04/14 09:38:08;;;;;;;7.25;4.32;;;21.70;61.80;;;;;;5348675;26;20074;-89
2024/04/14 09:40:36;;;;;;;7.53;4.60;;;21.80;63.70;;;;;;5314608;26;20021;-90
2024/04/14 09:43:03;;;;;;;6.80;4.70;;;21.90;61.40;;;;;;5347845;26;20055;-90
2024/04/14 09:45:31;;;;;;;13.73;4.38;;;22.10;60.80;;;;;;5347901;26;20005;-90
2024/04/14 09:47:58;;;;;;;8.77;4.20;;;22.10;59.70;;;;;;5347457;26;20001;-90
2024/04/14 09:50:25;;;;;;;7.97;4.38;;;22.00;60.70;;;;;;5347843;26;20115;-90
2024/04/14 09:52:52;;;;;;;6.07;4.53;;;22.20;57.80;;;;;;5347417;26;20003;-89
2024/04/14 09:55:19;;;;;;;7.95;4.00;;;22.60;57.60;;;;;;5346859;26;19997;-89
2024/04/14 09:57:45;;;;;;;5.63;3.83;;;22.70;58.60;;;;;;5343559;26;20008;-89
2024/04/14 10:00:11;;;;;;;6.05;4.78;;;22.80;58.70;;;;;;5347676;26;20013;-90
2024/04/14 10:03:02;;;;;;;6.45;4.47;;;22.80;56.40;;;;;;5357986;26;20005;-90
2024/04/14 10:05:28;;;;;;;7.68;4.82;;;23.00;57.80;;;;;;5328016;26;20539;-89
2024/04/14 10:07:54;;;;;;;5.88;4.45;;;23.20;56.00;;;;;;5360457;26;20005;-90
2024/04/14 10:10:24;;;;;;;8.27;4.45;;;22.90;56.70;;;;;;5351375;26;20040;-91
2024/04/14 10:12:52;;;;;;;7.03;3.30;;;23.20;56.80;;;;;;5348671;26;20362;-88
2024/04/14 10:15:19;;;;;;;6.68;5.03;;;23.70;55.60;;;;;;5348745;26;19993;-89
2024/04/14 10:17:46;;;;;;;5.28;4.05;;;23.70;54.20;;;;;;5347873;26;19997;-90
2024/04/14 10:20:15;;;;;;;4.80;3.08;;;23.40;55.30;;;;;;5312155;26;20002;-90
2024/04/14 10:22:42;;;;;;;4.93;2.97;;;23.40;52.50;;;;;;5340230;26;20004;-91
2024/04/14 10:25:22;;;;;;;5.13;3.13;;;23.70;51.20;;;;;;5347864;26;20045;-90
2024/04/14 10:27:49;;;;;;;3.75;2.53;;;23.90;50.30;;;;;;5341875;26;20022;-90
2024/04/14 10:30:21;;;;;;;5.85;4.07;;;23.80;50.10;;;;;;5349320;26;20012;-89
2024/04/14 10:32:46;;;;;;;11.27;2.95;;;24.10;49.30;;;;;;5348080;26;20011;-90
2024/04/14 10:35:16;;;;;;;10.57;3.00;;;23.90;48.60;;;;;;5349057;26;20000;-89
2024/04/14 10:37:55;;;;;;;4.45;2.67;;;23.80;50.00;;;;;;5352930;26;20001;-90
2024/04/14 10:40:22;;;;;;;5.03;2.85;;;24.10;49.90;;;;;;5343675;26;20001;-90
2024/04/14 10:42:48;;;;;;;6.43;2.95;;;24.00;49.70;;;;;;5319161;26;20017;-91
2024/04/14 10:45:24;;;;;;;7.50;3.15;;;24.30;47.60;;;;;;5320304;26;20023;-90
2024/04/14 10:47:51;;;;;;;3.92;2.50;;;24.30;48.10;;;;;;5337585;26;20491;-90
2024/04/14 10:50:17;;;;;;;4.85;3.60;;;24.60;48.70;;;;;;5350256;26;20008;-90
2024/04/14 10:52:42;;;;;;;14.75;2.95;;;24.50;47.20;;;;;;5341072;26;20004;-91
2024/04/14 10:55:10;;;;;;;4.93;2.60;;;24.90;47.30;;;;;;5347394;26;20046;-91
2024/04/14 10:57:35;;;;;;;7.90;3.65;;;24.50;47.30;;;;;;5351757;26;20033;-89
2024/04/14 11:00:04;;;;;;;8.93;3.45;;;24.40;47.80;;;;;;5316332;26;20061;-91
2024/04/14 11:02:31;;;;;;;5.47;3.30;;;24.50;50.70;;;;;;5342683;26;20011;-90
2024/04/14 11:04:57;;;;;;;7.57;3.72;;;24.60;47.30;;;;;;5350152;26;20000;-90
2024/04/14 11:07:22;;;;;;;4.63;3.00;;;24.30;47.80;;;;;;5343806;26;20005;-90
2024/04/14 11:09:49;;;;;;;9.50;4.05;;;24.20;48.40;;;;;;5333488;26;20005;-90
2024/04/14 11:12:15;;;;;;;5.38;3.60;;;23.60;49.90;;;;;;5347957;26;19998;-89
2024/04/14 11:14:47;;;;;;;41.03;33.50;;;23.60;49.70;;;;;;5368094;26;20009;-90
2024/04/14 11:17:13;;;;;;;6.30;3.65;;;24.20;51.10;;;;;;5348274;26;19997;-90
2024/04/14 11:19:39;;;;;;;104.10;81.50;;;25.60;45.00;;;;;;5343294;26;20004;-91
2024/04/14 11:22:15;;;;;;;38.17;19.85;;;25.60;45.10;;;;;;5345036;26;20115;-91
2024/04/14 11:24:40;;;;;;;22.58;13.25;;;25.00;46.60;;;;;;5351562;26;20009;-91
2024/04/14 11:27:15;;;;;;;7.47;4.20;;;25.00;46.20;;;;;;5345736;26;20016;-92
2024/04/14 11:29:53;;;;;;;7.88;3.63;;;24.60;47.50;;;;;;5317941;26;20455;-90
2024/04/14 11:32:33;;;;;;;9.02;4.30;;;24.00;49.20;;;;;;5340138;26;20012;-90
2024/04/14 11:35:05;;;;;;;12.05;3.22;;;24.10;49.70;;;;;;5315007;26;20354;-92
2024/04/14 11:37:49;;;;;;;6.10;3.97;;;24.20;49.30;;;;;;5341000;26;20001;-92
2024/04/14 11:40:26;;;;;;;8.90;3.67;;;24.20;49.60;;;;;;5317724;26;20001;-90
2024/04/14 11:42:57;;;;;;;17.50;4.20;;;24.90;46.60;;;;;;5346827;26;20009;-90
2024/04/14 11:45:28;;;;;;;4.72;3.30;;;24.70;49.50;;;;;;5320917;26;20015;-90
2024/04/14 11:47:54;;;;;;;9.75;3.70;;;25.40;47.00;;;;;;5351573;26;20513;-91
2024/04/14 11:50:24;;;;;;;8.05;4.25;;;25.10;45.70;;;;;;5352220;26;19997;-91
2024/04/14 11:52:53;;;;;;;8.07;3.55;;;24.90;46.40;;;;;;5347445;26;19997;-90
2024/04/14 11:55:23;;;;;;;6.05;2.85;;;24.90;47.70;;;;;;5345920;26;20004;-89
2024/04/14 11:57:54;;;;;;;5.25;2.65;;;25.20;44.50;;;;;;5358997;26;20032;-90
2024/04/14 12:00:20;;;;;;;6.40;3.00;;;25.10;46.20;;;;;;5360617;26;20001;-90
2024/04/14 12:02:48;;;;;;;5.03;2.22;;;25.80;45.50;;;;;;5369761;26;20369;-89
2024/04/14 12:05:34;;;;;;;6.13;3.00;;;26.00;44.40;;;;;;5363494;26;20012;-90
2024/04/14 12:08:06;;;;;;;6.95;2.85;;;25.70;41.30;;;;;;5349205;26;20012;-90
2024/04/14 12:10:37;;;;;;;4.68;3.13;;;25.20;43.30;;;;;;5350541;26;20032;-91
2024/04/14 12:13:09;;;;;;;9.88;3.72;;;25.80;42.40;;;;;;5350012;26;20019;-89
2024/04/14 12:15:37;;;;;;;5.40;2.67;;;25.90;42.00;;;;;;5320752;26;20005;-90
2024/04/14 12:18:12;;;;;;;9.80;4.60;;;26.10;42.30;;;;;;5351788;26;20006;-91
2024/04/14 12:20:38;;;;;;;4.20;3.17;;;26.00;41.10;;;;;;5352115;26;20069;-91
2024/04/14 12:23:04;;;;;;;4.70;2.13;;;25.70;40.30;;;;;;5352318;26;20413;-89
2024/04/14 12:25:29;;;;;;;3.78;2.80;;;25.90;41.10;;;;;;5353627;26;20008;-90
2024/04/14 12:27:55;;;;;;;7.72;3.30;;;26.60;40.90;;;;;;5348255;26;20007;-91
2024/04/14 12:30:21;;;;;;;5.53;3.35;;;27.10;39.90;;;;;;5351445;26;20021;-90
2024/04/14 12:32:50;;;;;;;4.05;3.10;;;27.50;38.80;;;;;;5350397;26;20075;-91
2024/04/14 12:35:15;;;;;;;6.57;2.60;;;27.70;37.90;;;;;;5352335;26;20033;-91
2024/04/14 12:37:41;;;;;;;6.85;3.17;;;27.30;39.10;;;;;;5350191;26;20016;-90
2024/04/14 12:40:08;;;;;;;4.80;2.78;;;27.70;38.70;;;;;;5350912;26;20047;-91
2024/04/14 12:42:34;;;;;;;4.25;2.65;;;27.00;38.20;;;;;;5350161;26;20005;-90